Dagus Mines, PA

2:10 PM EDT on July 31, 2014 (GMT -0400)
University Park (KUNV) Elev 1240 ft | 40.85 °N, 77.84 °W | Change Station

Current weather conditions updated 1 hour ago

Scattered Clouds
Scattered Clouds
70 °F
Feels Like 70 °F
N
6
Wind Variable Wind from SSW

Today is forecast to be nearly the same temperature as yesterday.

Today
High -- | Low -- °F
--% Chance of Precip.
Yesterday
High -- | Low -- °F
Precip. -- in
6:08 AM 8:32 PM
Waxing Crescent, 20% visible
Pressure 30.11 in
Visibility 10.0 miles
Clouds Scattered Clouds 2000 ft
Scattered Clouds 6000 ft
Scattered Clouds 7000 ft
Dew Point 63 °F
Humidity 78%
Rainfall 0.00 in
Snow Depth Not available.
UV 9 out of 12
Pollen 6.70 out of 12
Air Quality Not available.
Flu Activity Not available.
METAR KUNV 311653Z 21005KT 10SM SCT020 SCT060 SCT070 21/17 A3011

More Conditions Fewer Conditions

Pressure 30.11 in
Visibility 10.0 miles
Clouds Scattered Clouds 2000 ft
Scattered Clouds 6000 ft
Scattered Clouds 7000 ft
Dew Point 63 °F
Humidity 78%
Rainfall 0.00 in
Snow Depth Not available.
UV 9 out of 12
Pollen 6.70 out of 12
Air Quality Not available.
Flu Activity Not available.
METAR KUNV 311653Z 21005KT 10SM SCT020 SCT060 SCT070 21/17 A3011

More Conditions Fewer Conditions

10-Day Weather Forecast

Almanac

Astronomy

Jul. 31, 2014 Rise Set
Actual Time 6:08 AM EDT 8:32 PM EDT
Civil Twilight 5:37 AM EDT 9:03 PM EDT
Nautical Twilight 4:58 AM EDT 9:42 PM EDT
Astronomical Twilight 4:15 AM EDT 10:25 PM EDT
Moon 10:37 AM EDT 10:40 PM EDT
Length of Visible Light 15h 26m
Length of Day
14h 23m
Tomorrow will be 2m 5s shorter.
Waxing Crescent, 20% of the Moon is Illuminated
Today
Waxing Crescent
Aug 3
First Quarter
Aug 10
Full
Aug 17
Last Quarter
Aug 25
New

Today's Extremes

State Highs State Lows

Community

WunderPhotos

Upload Photos

1,739,406 photos uploaded!

Nearby

Snow Depth

Station Depth Elevation
No new snow has been reported.

Earthquake Activity

City Distance Mag. Time & Date
No recent earthquake activity has been reported nearby.
Minimum magnitude displayed is 2.5.

Coastal Water Temperatures

Place Temperature
No Stations Reporting

Nearby Weather Stations

Station Location Temp. Heat Index Dew Point Humidity Wind Precip. Elev Updated Type
Emerald Estates, Saint Marys, PA 70.2 °F 74 °F 60 °F 71% North  at  0.0 mph 0.00 in / hr 1870 ft 2:10 PM EDT Rapid Fire
Holly Terrace, Falls Creek, PA 72.1 °F 74 °F 63 °F 72% South  at  9.0 mph 0.00 in / hr 1473 ft 2:10 PM EDT Rapid Fire
Sterling Run, Driftwood, PA 73.7 °F 76 °F 61 °F 65% ENE  at  1.2 mph 0.00 in / hr 932 ft 2:10 PM EDT Rapid Fire
Division Street Ext., Mt Jewett, PA 70.2 °F 76 °F 57 °F 62% North  at  0.0 mph 0.00 in / hr 2245 ft 2:10 PM EDT Normal

Show More Stations Show Fewer Stations